sensor_id;sensor_type;location;lat;lon;timestamp;P1;durP1;ratioP1;P2;durP2;ratioP2
44348;SDS011;30068;50.986;4.564;2022-09-09T00:03:49;8.02;;;1.50;;
44348;SDS011;30068;50.986;4.564;2022-09-09T00:06:24;46.22;;;2.00;;
44348;SDS011;30068;50.986;4.564;2022-09-09T00:11:33;41.63;;;2.03;;
44348;SDS011;30068;50.986;4.564;2022-09-09T00:14:08;27.42;;;1.70;;
44348;SDS011;30068;50.986;4.564;2022-09-09T00:16:53;6.55;;;1.67;;
44348;SDS011;30068;50.986;4.564;2022-09-09T00:22:15;22.52;;;1.85;;
44348;SDS011;30068;50.986;4.564;2022-09-09T00:24:52;73.97;;;2.78;;
44348;SDS011;30068;50.986;4.564;2022-09-09T00:27:32;57.50;;;3.05;;
44348;SDS011;30068;50.986;4.564;2022-09-09T00:30:18;8.93;;;2.03;;
44348;SDS011;30068;50.986;4.564;2022-09-09T00:32:55;9.57;;;1.75;;
44348;SDS011;30068;50.986;4.564;2022-09-09T00:35:36;7.32;;;1.65;;
44348;SDS011;30068;50.986;4.564;2022-09-09T00:40:52;6.70;;;1.60;;
44348;SDS011;30068;50.986;4.564;2022-09-09T00:43:28;8.30;;;1.90;;
44348;SDS011;30068;50.986;4.564;2022-09-09T00:57:28;5.38;;;2.00;;
44348;SDS011;30068;50.986;4.564;2022-09-09T01:04:54;7.10;;;1.85;;
44348;SDS011;30068;50.986;4.564;2022-09-09T01:07:19;9.77;;;1.75;;
44348;SDS011;30068;50.986;4.564;2022-09-09T01:09:53;6.40;;;1.77;;
44348;SDS011;30068;50.986;4.564;2022-09-09T01:12:25;6.55;;;1.70;;
44348;SDS011;30068;50.986;4.564;2022-09-09T01:15:11;9.70;;;1.80;;
44348;SDS011;30068;50.986;4.564;2022-09-09T01:20:15;8.97;;;1.60;;
44348;SDS011;30068;50.986;4.564;2022-09-09T01:28:16;9.90;;;1.60;;
44348;SDS011;30068;50.986;4.564;2022-09-09T01:30:47;10.60;;;1.50;;
44348;SDS011;30068;50.986;4.564;2022-09-09T01:33:14;11.48;;;1.50;;
44348;SDS011;30068;50.986;4.564;2022-09-09T01:35:49;7.90;;;1.90;;
44348;SDS011;30068;50.986;4.564;2022-09-09T01:38:25;8.30;;;1.60;;
44348;SDS011;30068;50.986;4.564;2022-09-09T01:40:52;8.07;;;1.58;;
44348;SDS011;30068;50.986;4.564;2022-09-09T01:43:22;4.75;;;1.50;;
44348;SDS011;30068;50.986;4.564;2022-09-09T01:45:49;7.43;;;1.42;;
44348;SDS011;30068;50.986;4.564;2022-09-09T01:48:19;6.45;;;1.48;;
44348;SDS011;30068;50.986;4.564;2022-09-09T01:50:47;7.47;;;1.50;;
44348;SDS011;30068;50.986;4.564;2022-09-09T01:53:13;7.70;;;1.73;;
44348;SDS011;30068;50.986;4.564;2022-09-09T01:55:47;7.57;;;1.38;;
44348;SDS011;30068;50.986;4.564;2022-09-09T02:03:54;10.20;;;1.77;;
44348;SDS011;30068;50.986;4.564;2022-09-09T02:09:00;4.77;;;1.47;;
44348;SDS011;30068;50.986;4.564;2022-09-09T02:11:29;8.57;;;2.08;;
44348;SDS011;30068;50.986;4.564;2022-09-09T02:16:40;9.32;;;1.85;;
44348;SDS011;30068;50.986;4.564;2022-09-09T02:21:53;7.72;;;1.60;;
44348;SDS011;30068;50.986;4.564;2022-09-09T02:24:21;8.38;;;1.73;;
44348;SDS011;30068;50.986;4.564;2022-09-09T02:26:47;11.30;;;1.90;;
44348;SDS011;30068;50.986;4.564;2022-09-09T02:29:18;8.68;;;1.67;;
44348;SDS011;30068;50.986;4.564;2022-09-09T02:31:48;10.40;;;1.90;;
44348;SDS011;30068;50.986;4.564;2022-09-09T02:34:17;9.40;;;1.83;;
44348;SDS011;30068;50.986;4.564;2022-09-09T02:36:45;9.95;;;1.80;;
44348;SDS011;30068;50.986;4.564;2022-09-09T02:39:12;9.07;;;2.45;;
44348;SDS011;30068;50.986;4.564;2022-09-09T02:41:39;7.80;;;1.60;;
44348;SDS011;30068;50.986;4.564;2022-09-09T02:44:13;11.20;;;2.03;;
44348;SDS011;30068;50.986;4.564;2022-09-09T02:52:07;8.88;;;1.88;;
44348;SDS011;30068;50.986;4.564;2022-09-09T02:54:37;11.20;;;1.67;;
44348;SDS011;30068;50.986;4.564;2022-09-09T02:59:37;10.25;;;1.80;;
44348;SDS011;30068;50.986;4.564;2022-09-09T03:02:04;9.30;;;1.90;;
44348;SDS011;30068;50.986;4.564;2022-09-09T03:04:29;7.65;;;1.70;;
44348;SDS011;30068;50.986;4.564;2022-09-09T03:06:56;13.93;;;2.03;;
44348;SDS011;30068;50.986;4.564;2022-09-09T03:09:22;9.37;;;1.80;;
44348;SDS011;30068;50.986;4.564;2022-09-09T03:11:48;12.97;;;1.80;;
44348;SDS011;30068;50.986;4.564;2022-09-09T03:14:14;11.25;;;1.90;;
44348;SDS011;30068;50.986;4.564;2022-09-09T03:16:40;8.05;;;1.98;;
44348;SDS011;30068;50.986;4.564;2022-09-09T03:19:07;11.20;;;1.83;;
44348;SDS011;30068;50.986;4.564;2022-09-09T03:21:32;10.10;;;2.10;;
44348;SDS011;30068;50.986;4.564;2022-09-09T03:23:58;15.55;;;2.10;;
44348;SDS011;30068;50.986;4.564;2022-09-09T03:26:23;11.43;;;2.07;;
44348;SDS011;30068;50.986;4.564;2022-09-09T03:28:49;8.93;;;1.92;;
44348;SDS011;30068;50.986;4.564;2022-09-09T03:31:17;10.20;;;1.70;;
44348;SDS011;30068;50.986;4.564;2022-09-09T03:33:44;11.43;;;2.10;;
44348;SDS011;30068;50.986;4.564;2022-09-09T03:36:09;14.75;;;2.00;;
44348;SDS011;30068;50.986;4.564;2022-09-09T03:38:35;15.70;;;2.20;;
44348;SDS011;30068;50.986;4.564;2022-09-09T03:41:01;12.48;;;2.10;;
44348;SDS011;30068;50.986;4.564;2022-09-09T03:43:27;12.65;;;2.00;;
44348;SDS011;30068;50.986;4.564;2022-09-09T03:45:53;15.45;;;2.10;;
44348;SDS011;30068;50.986;4.564;2022-09-09T03:48:21;9.48;;;1.75;;
44348;SDS011;30068;50.986;4.564;2022-09-09T03:50:51;12.70;;;2.13;;
44348;SDS011;30068;50.986;4.564;2022-09-09T03:53:18;11.85;;;1.80;;
44348;SDS011;30068;50.986;4.564;2022-09-09T03:55:52;14.65;;;2.03;;
44348;SDS011;30068;50.986;4.564;2022-09-09T03:58:20;9.85;;;2.05;;
44348;SDS011;30068;50.986;4.564;2022-09-09T04:00:56;12.65;;;1.90;;
44348;SDS011;30068;50.986;4.564;2022-09-09T04:03:23;12.45;;;2.40;;
44348;SDS011;30068;50.986;4.564;2022-09-09T04:05:50;12.73;;;2.50;;
44348;SDS011;30068;50.986;4.564;2022-09-09T04:08:16;10.10;;;2.03;;
44348;SDS011;30068;50.986;4.564;2022-09-09T04:10:44;9.07;;;1.63;;
44348;SDS011;30068;50.986;4.564;2022-09-09T04:13:11;10.15;;;1.92;;
44348;SDS011;30068;50.986;4.564;2022-09-09T04:15:41;11.65;;;2.20;;
44348;SDS011;30068;50.986;4.564;2022-09-09T04:18:07;11.23;;;1.85;;
44348;SDS011;30068;50.986;4.564;2022-09-09T04:20:32;13.33;;;2.10;;
44348;SDS011;30068;50.986;4.564;2022-09-09T04:22:58;11.48;;;2.10;;
44348;SDS011;30068;50.986;4.564;2022-09-09T04:25:24;14.77;;;1.90;;
44348;SDS011;30068;50.986;4.564;2022-09-09T04:27:56;11.50;;;2.10;;
44348;SDS011;30068;50.986;4.564;2022-09-09T04:30:23;10.05;;;2.05;;
44348;SDS011;30068;50.986;4.564;2022-09-09T04:32:49;11.65;;;1.85;;
44348;SDS011;30068;50.986;4.564;2022-09-09T04:35:15;10.63;;;2.03;;
44348;SDS011;30068;50.986;4.564;2022-09-09T04:37:40;15.17;;;2.13;;
44348;SDS011;30068;50.986;4.564;2022-09-09T04:40:06;10.77;;;1.87;;
44348;SDS011;30068;50.986;4.564;2022-09-09T04:42:37;13.00;;;2.00;;
44348;SDS011;30068;50.986;4.564;2022-09-09T04:45:04;15.20;;;2.10;;
44348;SDS011;30068;50.986;4.564;2022-09-09T04:47:31;14.70;;;2.10;;
44348;SDS011;30068;50.986;4.564;2022-09-09T04:49:56;15.32;;;2.00;;
44348;SDS011;30068;50.986;4.564;2022-09-09T04:52:22;13.60;;;1.97;;
44348;SDS011;30068;50.986;4.564;2022-09-09T04:54:47;16.73;;;2.20;;
44348;SDS011;30068;50.986;4.564;2022-09-09T04:57:13;8.60;;;2.00;;
44348;SDS011;30068;50.986;4.564;2022-09-09T04:59:38;14.27;;;2.10;;
44348;SDS011;30068;50.986;4.564;2022-09-09T05:02:04;10.80;;;2.30;;
44348;SDS011;30068;50.986;4.564;2022-09-09T05:04:30;14.27;;;2.20;;
44348;SDS011;30068;50.986;4.564;2022-09-09T05:06:56;14.50;;;2.30;;
44348;SDS011;30068;50.986;4.564;2022-09-09T05:09:21;10.97;;;2.20;;
44348;SDS011;30068;50.986;4.564;2022-09-09T05:11:46;13.23;;;2.40;;
44348;SDS011;30068;50.986;4.564;2022-09-09T05:14:12;13.40;;;2.37;;
44348;SDS011;30068;50.986;4.564;2022-09-09T05:16:37;12.23;;;2.40;;
44348;SDS011;30068;50.986;4.564;2022-09-09T05:19:03;13.63;;;2.20;;
44348;SDS011;30068;50.986;4.564;2022-09-09T05:21:28;14.20;;;2.58;;
44348;SDS011;30068;50.986;4.564;2022-09-09T05:23:55;16.00;;;2.40;;
44348;SDS011;30068;50.986;4.564;2022-09-09T05:26:21;13.43;;;2.58;;
44348;SDS011;30068;50.986;4.564;2022-09-09T05:28:47;14.77;;;2.58;;
44348;SDS011;30068;50.986;4.564;2022-09-09T05:31:14;12.07;;;2.40;;
44348;SDS011;30068;50.986;4.564;2022-09-09T05:33:41;12.23;;;2.50;;
44348;SDS011;30068;50.986;4.564;2022-09-09T05:36:09;15.93;;;2.72;;
44348;SDS011;30068;50.986;4.564;2022-09-09T05:38:38;13.10;;;2.83;;
44348;SDS011;30068;50.986;4.564;2022-09-09T05:41:04;12.30;;;2.70;;
44348;SDS011;30068;50.986;4.564;2022-09-09T05:43:30;14.00;;;2.67;;
44348;SDS011;30068;50.986;4.564;2022-09-09T05:48:29;14.93;;;2.58;;
44348;SDS011;30068;50.986;4.564;2022-09-09T05:50:57;14.93;;;2.70;;
44348;SDS011;30068;50.986;4.564;2022-09-09T05:53:23;14.60;;;2.70;;
44348;SDS011;30068;50.986;4.564;2022-09-09T05:55:49;12.15;;;2.65;;
44348;SDS011;30068;50.986;4.564;2022-09-09T05:58:15;16.10;;;2.78;;
44348;SDS011;30068;50.986;4.564;2022-09-09T06:00:42;12.63;;;2.88;;
44348;SDS011;30068;50.986;4.564;2022-09-09T06:03:11;11.38;;;2.40;;
44348;SDS011;30068;50.986;4.564;2022-09-09T06:05:37;12.73;;;2.80;;
44348;SDS011;30068;50.986;4.564;2022-09-09T06:08:03;14.87;;;2.80;;
44348;SDS011;30068;50.986;4.564;2022-09-09T06:10:28;12.63;;;2.90;;
44348;SDS011;30068;50.986;4.564;2022-09-09T06:12:54;11.67;;;2.63;;
44348;SDS011;30068;50.986;4.564;2022-09-09T06:15:20;16.23;;;3.03;;
44348;SDS011;30068;50.986;4.564;2022-09-09T06:17:45;15.13;;;3.08;;
44348;SDS011;30068;50.986;4.564;2022-09-09T06:20:12;12.48;;;2.92;;
44348;SDS011;30068;50.986;4.564;2022-09-09T06:22:41;14.30;;;2.70;;
44348;SDS011;30068;50.986;4.564;2022-09-09T06:25:07;13.38;;;2.97;;
44348;SDS011;30068;50.986;4.564;2022-09-09T06:27:34;10.65;;;2.25;;
44348;SDS011;30068;50.986;4.564;2022-09-09T06:30:00;14.20;;;3.33;;
44348;SDS011;30068;50.986;4.564;2022-09-09T06:32:25;12.52;;;2.40;;
44348;SDS011;30068;50.986;4.564;2022-09-09T06:34:52;12.32;;;2.45;;
44348;SDS011;30068;50.986;4.564;2022-09-09T06:37:17;11.07;;;3.10;;
44348;SDS011;30068;50.986;4.564;2022-09-09T06:39:42;9.80;;;2.60;;
44348;SDS011;30068;50.986;4.564;2022-09-09T06:42:08;12.00;;;2.20;;
44348;SDS011;30068;50.986;4.564;2022-09-09T06:44:33;15.00;;;2.40;;
44348;SDS011;30068;50.986;4.564;2022-09-09T06:46:59;11.47;;;2.77;;
44348;SDS011;30068;50.986;4.564;2022-09-09T06:49:24;12.35;;;2.33;;
44348;SDS011;30068;50.986;4.564;2022-09-09T06:51:50;14.97;;;2.67;;
44348;SDS011;30068;50.986;4.564;2022-09-09T06:54:17;11.10;;;2.20;;
44348;SDS011;30068;50.986;4.564;2022-09-09T06:56:43;14.52;;;2.50;;
44348;SDS011;30068;50.986;4.564;2022-09-09T06:59:10;8.32;;;2.00;;
44348;SDS011;30068;50.986;4.564;2022-09-09T07:01:40;12.47;;;2.40;;
44348;SDS011;30068;50.986;4.564;2022-09-09T07:04:08;15.10;;;2.70;;
44348;SDS011;30068;50.986;4.564;2022-09-09T07:06:39;9.98;;;2.10;;
44348;SDS011;30068;50.986;4.564;2022-09-09T07:09:09;11.07;;;2.40;;
44348;SDS011;30068;50.986;4.564;2022-09-09T07:11:37;14.65;;;2.33;;
44348;SDS011;30068;50.986;4.564;2022-09-09T07:14:06;10.25;;;2.10;;
44348;SDS011;30068;50.986;4.564;2022-09-09T07:16:32;11.23;;;2.10;;
44348;SDS011;30068;50.986;4.564;2022-09-09T07:18:58;11.65;;;2.03;;
44348;SDS011;30068;50.986;4.564;2022-09-09T07:21:26;9.88;;;2.03;;
44348;SDS011;30068;50.986;4.564;2022-09-09T07:23:52;13.30;;;2.38;;
44348;SDS011;30068;50.986;4.564;2022-09-09T07:26:19;14.23;;;2.25;;
44348;SDS011;30068;50.986;4.564;2022-09-09T07:28:46;11.05;;;2.25;;
44348;SDS011;30068;50.986;4.564;2022-09-09T07:31:15;10.52;;;2.25;;
44348;SDS011;30068;50.986;4.564;2022-09-09T07:33:45;12.43;;;2.42;;
44348;SDS011;30068;50.986;4.564;2022-09-09T07:36:15;10.70;;;2.38;;
44348;SDS011;30068;50.986;4.564;2022-09-09T07:38:44;10.65;;;2.22;;
44348;SDS011;30068;50.986;4.564;2022-09-09T07:41:12;14.07;;;2.20;;
44348;SDS011;30068;50.986;4.564;2022-09-09T07:43:43;12.80;;;2.22;;
44348;SDS011;30068;50.986;4.564;2022-09-09T07:46:10;10.82;;;1.80;;
44348;SDS011;30068;50.986;4.564;2022-09-09T07:48:37;11.05;;;2.40;;
44348;SDS011;30068;50.986;4.564;2022-09-09T07:53:34;10.27;;;2.38;;
44348;SDS011;30068;50.986;4.564;2022-09-09T07:56:08;11.38;;;2.08;;
44348;SDS011;30068;50.986;4.564;2022-09-09T07:58:36;9.27;;;2.20;;
44348;SDS011;30068;50.986;4.564;2022-09-09T08:01:06;11.68;;;2.17;;
44348;SDS011;30068;50.986;4.564;2022-09-09T08:03:32;11.50;;;1.93;;
44348;SDS011;30068;50.986;4.564;2022-09-09T08:06:00;9.93;;;1.80;;
44348;SDS011;30068;50.986;4.564;2022-09-09T08:08:27;8.23;;;1.80;;
44348;SDS011;30068;50.986;4.564;2022-09-09T08:10:53;11.48;;;1.98;;
44348;SDS011;30068;50.986;4.564;2022-09-09T08:13:18;15.45;;;2.30;;
44348;SDS011;30068;50.986;4.564;2022-09-09T08:15:44;7.80;;;1.40;;
44348;SDS011;30068;50.986;4.564;2022-09-09T08:18:09;10.37;;;2.37;;
44348;SDS011;30068;50.986;4.564;2022-09-09T08:20:35;10.93;;;1.88;;
44348;SDS011;30068;50.986;4.564;2022-09-09T08:23:02;9.57;;;1.90;;
44348;SDS011;30068;50.986;4.564;2022-09-09T08:25:27;8.98;;;1.63;;
44348;SDS011;30068;50.986;4.564;2022-09-09T08:27:53;11.90;;;2.05;;
44348;SDS011;30068;50.986;4.564;2022-09-09T08:30:19;8.43;;;1.63;;
44348;SDS011;30068;50.986;4.564;2022-09-09T08:32:44;8.95;;;1.70;;
44348;SDS011;30068;50.986;4.564;2022-09-09T08:35:10;11.02;;;1.70;;
44348;SDS011;30068;50.986;4.564;2022-09-09T08:37:36;8.10;;;1.60;;
44348;SDS011;30068;50.986;4.564;2022-09-09T08:40:01;10.40;;;1.83;;
44348;SDS011;30068;50.986;4.564;2022-09-09T08:42:32;9.38;;;1.77;;
44348;SDS011;30068;50.986;4.564;2022-09-09T08:45:37;17.95;;;8.35;;
44348;SDS011;30068;50.986;4.564;2022-09-09T08:50:29;11.60;;;1.95;;
44348;SDS011;30068;50.986;4.564;2022-09-09T08:58:09;9.52;;;1.77;;
44348;SDS011;30068;50.986;4.564;2022-09-09T09:00:57;7.85;;;1.55;;
44348;SDS011;30068;50.986;4.564;2022-09-09T09:11:45;9.45;;;2.08;;
44348;SDS011;30068;50.986;4.564;2022-09-09T09:14:19;9.85;;;2.00;;
44348;SDS011;30068;50.986;4.564;2022-09-09T09:16:58;7.53;;;1.98;;
44348;SDS011;30068;50.986;4.564;2022-09-09T09:19:26;8.00;;;1.80;;
44348;SDS011;30068;50.986;4.564;2022-09-09T09:22:01;10.63;;;2.13;;
44348;SDS011;30068;50.986;4.564;2022-09-09T09:27:36;9.13;;;2.00;;
44348;SDS011;30068;50.986;4.564;2022-09-09T09:30:14;7.47;;;1.85;;
44348;SDS011;30068;50.986;4.564;2022-09-09T11:16:22;7.88;;;1.75;;
44348;SDS011;30068;50.986;4.564;2022-09-09T11:18:58;6.97;;;1.60;;
44348;SDS011;30068;50.986;4.564;2022-09-09T11:21:29;8.40;;;1.60;;
44348;SDS011;30068;50.986;4.564;2022-09-09T11:24:01;10.40;;;2.42;;
44348;SDS011;30068;50.986;4.564;2022-09-09T11:26:56;10.23;;;1.50;;
44348;SDS011;30068;50.986;4.564;2022-09-09T11:35:38;5.15;;;1.30;;
44348;SDS011;30068;50.986;4.564;2022-09-09T11:38:26;5.13;;;1.20;;
44348;SDS011;30068;50.986;4.564;2022-09-09T11:43:27;5.88;;;1.20;;
44348;SDS011;30068;50.986;4.564;2022-09-09T11:45:57;5.95;;;1.20;;
44348;SDS011;30068;50.986;4.564;2022-09-09T11:48:38;5.28;;;1.20;;
44348;SDS011;30068;50.986;4.564;2022-09-09T11:53:47;4.00;;;0.90;;
44348;SDS011;30068;50.986;4.564;2022-09-09T11:56:23;5.18;;;1.20;;
44348;SDS011;30068;50.986;4.564;2022-09-09T11:59:05;4.70;;;1.17;;
44348;SDS011;30068;50.986;4.564;2022-09-09T12:01:45;7.10;;;1.10;;
44348;SDS011;30068;50.986;4.564;2022-09-09T12:12:44;7.88;;;1.20;;
44348;SDS011;30068;50.986;4.564;2022-09-09T12:17:41;6.33;;;1.07;;
44348;SDS011;30068;50.986;4.564;2022-09-09T12:25:46;8.00;;;1.20;;
44348;SDS011;30068;50.986;4.564;2022-09-09T12:31:27;6.90;;;1.67;;
44348;SDS011;30068;50.986;4.564;2022-09-09T12:34:11;6.53;;;1.33;;
44348;SDS011;30068;50.986;4.564;2022-09-09T12:36:41;5.38;;;1.10;;
44348;SDS011;30068;50.986;4.564;2022-09-09T12:39:16;8.27;;;1.20;;
44348;SDS011;30068;50.986;4.564;2022-09-09T12:41:53;8.93;;;1.50;;
44348;SDS011;30068;50.986;4.564;2022-09-09T12:44:21;5.63;;;1.20;;
44348;SDS011;30068;50.986;4.564;2022-09-09T12:46:47;7.75;;;1.10;;
44348;SDS011;30068;50.986;4.564;2022-09-09T12:51:54;5.67;;;1.50;;
44348;SDS011;30068;50.986;4.564;2022-09-09T12:54:23;7.18;;;1.40;;
44348;SDS011;30068;50.986;4.564;2022-09-09T12:56:49;5.25;;;0.90;;
44348;SDS011;30068;50.986;4.564;2022-09-09T12:59:25;6.75;;;1.30;;
44348;SDS011;30068;50.986;4.564;2022-09-09T13:02:00;5.57;;;1.15;;
44348;SDS011;30068;50.986;4.564;2022-09-09T13:04:26;6.25;;;1.20;;
44348;SDS011;30068;50.986;4.564;2022-09-09T13:06:52;4.30;;;1.10;;
44348;SDS011;30068;50.986;4.564;2022-09-09T13:09:17;6.80;;;1.50;;
44348;SDS011;30068;50.986;4.564;2022-09-09T13:11:53;8.00;;;1.20;;
44348;SDS011;30068;50.986;4.564;2022-09-09T13:16:57;4.57;;;1.00;;
44348;SDS011;30068;50.986;4.564;2022-09-09T13:19:24;7.80;;;1.15;;
44348;SDS011;30068;50.986;4.564;2022-09-09T13:21:52;6.30;;;1.00;;
44348;SDS011;30068;50.986;4.564;2022-09-09T13:24:26;5.20;;;1.00;;
44348;SDS011;30068;50.986;4.564;2022-09-09T13:27:25;3.45;;;0.90;;
44348;SDS011;30068;50.986;4.564;2022-09-09T13:29:55;4.97;;;1.10;;
44348;SDS011;30068;50.986;4.564;2022-09-09T13:32:22;5.22;;;1.00;;
44348;SDS011;30068;50.986;4.564;2022-09-09T13:34:58;4.32;;;1.00;;
44348;SDS011;30068;50.986;4.564;2022-09-09T13:37:33;5.93;;;1.05;;
44348;SDS011;30068;50.986;4.564;2022-09-09T13:40:01;5.95;;;1.23;;
44348;SDS011;30068;50.986;4.564;2022-09-09T13:42:29;6.00;;;1.10;;
44348;SDS011;30068;50.986;4.564;2022-09-09T13:44:58;4.10;;;1.00;;
44348;SDS011;30068;50.986;4.564;2022-09-09T13:50:09;5.03;;;0.90;;
44348;SDS011;30068;50.986;4.564;2022-09-09T13:52:53;5.23;;;1.10;;
44348;SDS011;30068;50.986;4.564;2022-09-09T13:55:20;5.20;;;1.00;;
44348;SDS011;30068;50.986;4.564;2022-09-09T13:57:57;4.50;;;0.95;;
44348;SDS011;30068;50.986;4.564;2022-09-09T14:00:25;4.82;;;1.00;;
44348;SDS011;30068;50.986;4.564;2022-09-09T14:02:53;6.13;;;0.95;;
44348;SDS011;30068;50.986;4.564;2022-09-09T14:05:20;7.83;;;1.10;;
44348;SDS011;30068;50.986;4.564;2022-09-09T14:07:47;5.47;;;1.10;;
44348;SDS011;30068;50.986;4.564;2022-09-09T14:10:14;4.65;;;1.08;;
44348;SDS011;30068;50.986;4.564;2022-09-09T14:12:39;4.40;;;1.20;;
44348;SDS011;30068;50.986;4.564;2022-09-09T14:15:05;4.03;;;1.00;;
44348;SDS011;30068;50.986;4.564;2022-09-09T14:17:32;5.03;;;1.30;;
44348;SDS011;30068;50.986;4.564;2022-09-09T14:19:58;5.57;;;1.20;;
44348;SDS011;30068;50.986;4.564;2022-09-09T14:22:24;5.60;;;0.90;;
44348;SDS011;30068;50.986;4.564;2022-09-09T14:24:50;5.38;;;1.08;;
44348;SDS011;30068;50.986;4.564;2022-09-09T14:27:16;4.72;;;1.00;;
44348;SDS011;30068;50.986;4.564;2022-09-09T14:29:43;4.38;;;2.10;;
44348;SDS011;30068;50.986;4.564;2022-09-09T14:32:09;3.23;;;0.90;;
44348;SDS011;30068;50.986;4.564;2022-09-09T14:34:35;6.57;;;1.13;;
44348;SDS011;30068;50.986;4.564;2022-09-09T14:37:00;3.87;;;1.57;;
44348;SDS011;30068;50.986;4.564;2022-09-09T14:39:26;5.57;;;1.17;;
44348;SDS011;30068;50.986;4.564;2022-09-09T14:41:51;5.22;;;1.00;;
44348;SDS011;30068;50.986;4.564;2022-09-09T14:44:17;9.13;;;1.57;;
44348;SDS011;30068;50.986;4.564;2022-09-09T14:46:43;5.43;;;0.90;;
44348;SDS011;30068;50.986;4.564;2022-09-09T14:49:08;7.17;;;1.20;;
44348;SDS011;30068;50.986;4.564;2022-09-09T14:51:36;7.82;;;1.25;;
44348;SDS011;30068;50.986;4.564;2022-09-09T14:54:02;5.03;;;1.15;;
44348;SDS011;30068;50.986;4.564;2022-09-09T14:56:28;6.57;;;1.00;;
44348;SDS011;30068;50.986;4.564;2022-09-09T14:58:57;5.28;;;1.20;;
44348;SDS011;30068;50.986;4.564;2022-09-09T15:01:23;5.22;;;1.15;;
44348;SDS011;30068;50.986;4.564;2022-09-09T15:03:53;5.47;;;1.10;;
44348;SDS011;30068;50.986;4.564;2022-09-09T15:06:20;4.97;;;1.20;;
44348;SDS011;30068;50.986;4.564;2022-09-09T15:08:49;5.80;;;1.10;;
44348;SDS011;30068;50.986;4.564;2022-09-09T15:11:17;6.97;;;1.38;;
44348;SDS011;30068;50.986;4.564;2022-09-09T15:13:42;6.63;;;1.40;;
44348;SDS011;30068;50.986;4.564;2022-09-09T15:16:09;4.28;;;1.10;;
44348;SDS011;30068;50.986;4.564;2022-09-09T15:18:36;4.55;;;1.30;;
44348;SDS011;30068;50.986;4.564;2022-09-09T15:21:07;5.10;;;1.10;;
44348;SDS011;30068;50.986;4.564;2022-09-09T15:23:34;4.90;;;1.10;;
44348;SDS011;30068;50.986;4.564;2022-09-09T15:26:00;6.05;;;1.20;;
44348;SDS011;30068;50.986;4.564;2022-09-09T15:28:26;4.45;;;1.42;;
44348;SDS011;30068;50.986;4.564;2022-09-09T15:30:52;5.82;;;1.15;;
44348;SDS011;30068;50.986;4.564;2022-09-09T15:33:19;5.15;;;1.00;;
44348;SDS011;30068;50.986;4.564;2022-09-09T15:35:46;5.23;;;1.37;;
44348;SDS011;30068;50.986;4.564;2022-09-09T15:38:11;5.90;;;1.00;;
44348;SDS011;30068;50.986;4.564;2022-09-09T15:40:41;5.72;;;1.05;;
44348;SDS011;30068;50.986;4.564;2022-09-09T15:43:07;4.77;;;0.90;;
44348;SDS011;30068;50.986;4.564;2022-09-09T15:45:34;5.00;;;1.10;;
44348;SDS011;30068;50.986;4.564;2022-09-09T15:48:00;4.57;;;1.05;;
44348;SDS011;30068;50.986;4.564;2022-09-09T15:50:26;4.10;;;1.00;;
44348;SDS011;30068;50.986;4.564;2022-09-09T15:52:52;5.57;;;1.20;;
44348;SDS011;30068;50.986;4.564;2022-09-09T15:55:18;4.77;;;0.90;;
44348;SDS011;30068;50.986;4.564;2022-09-09T15:57:50;6.00;;;1.10;;
44348;SDS011;30068;50.986;4.564;2022-09-09T16:00:18;5.75;;;1.00;;
44348;SDS011;30068;50.986;4.564;2022-09-09T16:02:46;3.70;;;1.00;;
44348;SDS011;30068;50.986;4.564;2022-09-09T16:05:12;7.88;;;1.38;;
44348;SDS011;30068;50.986;4.564;2022-09-09T16:07:37;5.90;;;1.30;;
44348;SDS011;30068;50.986;4.564;2022-09-09T16:10:02;6.73;;;1.37;;
44348;SDS011;30068;50.986;4.564;2022-09-09T16:12:28;5.83;;;1.20;;
44348;SDS011;30068;50.986;4.564;2022-09-09T16:14:55;5.53;;;1.17;;
44348;SDS011;30068;50.986;4.564;2022-09-09T16:17:20;4.33;;;1.30;;
44348;SDS011;30068;50.986;4.564;2022-09-09T16:19:46;5.50;;;1.38;;
44348;SDS011;30068;50.986;4.564;2022-09-09T16:22:12;6.47;;;1.57;;
44348;SDS011;30068;50.986;4.564;2022-09-09T16:24:40;7.15;;;1.40;;
44348;SDS011;30068;50.986;4.564;2022-09-09T16:27:05;9.30;;;1.30;;
44348;SDS011;30068;50.986;4.564;2022-09-09T16:29:31;5.95;;;1.33;;
44348;SDS011;30068;50.986;4.564;2022-09-09T16:31:57;5.70;;;1.40;;
44348;SDS011;30068;50.986;4.564;2022-09-09T16:34:23;6.20;;;1.50;;
44348;SDS011;30068;50.986;4.564;2022-09-09T16:36:50;7.32;;;1.50;;
44348;SDS011;30068;50.986;4.564;2022-09-09T16:39:16;5.73;;;1.37;;
44348;SDS011;30068;50.986;4.564;2022-09-09T16:41:44;6.85;;;1.60;;
44348;SDS011;30068;50.986;4.564;2022-09-09T16:44:12;6.80;;;1.48;;
44348;SDS011;30068;50.986;4.564;2022-09-09T16:46:41;6.13;;;1.42;;
44348;SDS011;30068;50.986;4.564;2022-09-09T16:49:08;6.57;;;1.27;;
44348;SDS011;30068;50.986;4.564;2022-09-09T16:51:39;5.72;;;1.30;;
44348;SDS011;30068;50.986;4.564;2022-09-09T16:54:07;4.60;;;0.90;;
44348;SDS011;30068;50.986;4.564;2022-09-09T16:56:36;4.22;;;1.05;;
44348;SDS011;30068;50.986;4.564;2022-09-09T16:59:04;8.35;;;1.20;;
44348;SDS011;30068;50.986;4.564;2022-09-09T17:01:33;6.05;;;1.10;;
44348;SDS011;30068;50.986;4.564;2022-09-09T17:04:03;7.05;;;1.92;;
44348;SDS011;30068;50.986;4.564;2022-09-09T17:06:31;7.03;;;1.50;;
44348;SDS011;30068;50.986;4.564;2022-09-09T17:09:02;6.45;;;1.10;;
44348;SDS011;30068;50.986;4.564;2022-09-09T17:11:32;4.30;;;1.00;;
44348;SDS011;30068;50.986;4.564;2022-09-09T17:13:58;4.40;;;1.10;;
44348;SDS011;30068;50.986;4.564;2022-09-09T17:16:26;5.20;;;1.10;;
44348;SDS011;30068;50.986;4.564;2022-09-09T17:18:54;4.45;;;1.10;;
44348;SDS011;30068;50.986;4.564;2022-09-09T17:21:22;3.90;;;1.00;;
44348;SDS011;30068;50.986;4.564;2022-09-09T17:23:51;5.63;;;1.08;;
44348;SDS011;30068;50.986;4.564;2022-09-09T17:26:18;6.50;;;1.10;;
44348;SDS011;30068;50.986;4.564;2022-09-09T17:28:45;5.72;;;1.15;;
44348;SDS011;30068;50.986;4.564;2022-09-09T17:31:11;4.22;;;1.00;;
44348;SDS011;30068;50.986;4.564;2022-09-09T17:33:38;5.60;;;1.10;;
44348;SDS011;30068;50.986;4.564;2022-09-09T17:36:08;4.22;;;1.02;;
44348;SDS011;30068;50.986;4.564;2022-09-09T17:38:36;4.55;;;1.00;;
44348;SDS011;30068;50.986;4.564;2022-09-09T17:41:13;6.05;;;1.00;;
44348;SDS011;30068;50.986;4.564;2022-09-09T17:43:41;4.30;;;1.05;;
44348;SDS011;30068;50.986;4.564;2022-09-09T17:48:37;6.00;;;1.00;;
44348;SDS011;30068;50.986;4.564;2022-09-09T17:51:04;4.80;;;1.00;;
44348;SDS011;30068;50.986;4.564;2022-09-09T17:53:35;5.13;;;1.00;;
44348;SDS011;30068;50.986;4.564;2022-09-09T17:56:03;3.92;;;0.93;;
44348;SDS011;30068;50.986;4.564;2022-09-09T17:58:29;6.60;;;1.10;;
44348;SDS011;30068;50.986;4.564;2022-09-09T18:00:55;4.47;;;1.07;;
44348;SDS011;30068;50.986;4.564;2022-09-09T18:03:20;7.47;;;1.20;;
44348;SDS011;30068;50.986;4.564;2022-09-09T18:05:46;6.47;;;1.33;;
44348;SDS011;30068;50.986;4.564;2022-09-09T18:08:11;5.43;;;1.20;;
44348;SDS011;30068;50.986;4.564;2022-09-09T18:10:37;6.85;;;1.20;;
44348;SDS011;30068;50.986;4.564;2022-09-09T18:13:03;7.55;;;1.30;;
44348;SDS011;30068;50.986;4.564;2022-09-09T18:15:30;6.57;;;1.00;;
44348;SDS011;30068;50.986;4.564;2022-09-09T18:17:56;6.57;;;1.20;;
44348;SDS011;30068;50.986;4.564;2022-09-09T18:20:26;6.30;;;1.20;;
44348;SDS011;30068;50.986;4.564;2022-09-09T18:22:51;5.83;;;0.90;;
44348;SDS011;30068;50.986;4.564;2022-09-09T18:25:17;5.90;;;0.90;;
44348;SDS011;30068;50.986;4.564;2022-09-09T18:27:42;6.77;;;0.80;;
44348;SDS011;30068;50.986;4.564;2022-09-09T18:30:08;4.93;;;1.00;;
44348;SDS011;30068;50.986;4.564;2022-09-09T18:32:34;5.68;;;1.05;;
44348;SDS011;30068;50.986;4.564;2022-09-09T18:35:00;6.67;;;1.00;;
44348;SDS011;30068;50.986;4.564;2022-09-09T18:37:25;8.07;;;1.00;;